createdAt,value
2019-05-03T00:01:46.293Z,97.70
2019-05-03T00:04:19.722Z,97.50
2019-05-03T00:06:48.169Z,97.40
2019-05-03T00:09:19.358Z,97.40
2019-05-03T00:11:47.349Z,97.60
2019-05-03T00:14:15.691Z,97.70
2019-05-03T00:16:48.066Z,97.90
2019-05-03T00:19:16.361Z,98.10
2019-05-03T00:21:46.043Z,98.30
2019-05-03T00:24:14.363Z,98.40
2019-05-03T00:26:44.782Z,98.60
2019-05-03T00:29:15.849Z,98.50
2019-05-03T00:31:44.645Z,98.80
2019-05-03T00:34:17.415Z,98.40
2019-05-03T00:36:53.018Z,98.30
2019-05-03T00:39:33.391Z,98.30
2019-05-03T00:42:03.449Z,98.40
2019-05-03T00:44:33.888Z,98.60
2019-05-03T00:47:05.074Z,98.60
2019-05-03T00:49:33.032Z,98.60
2019-05-03T00:52:03.690Z,98.70
2019-05-03T00:54:31.660Z,98.80
2019-05-03T00:56:59.536Z,99.00
2019-05-03T00:59:27.151Z,98.80
2019-05-03T01:01:54.863Z,98.90
2019-05-03T01:04:23.062Z,98.90
2019-05-03T01:06:52.697Z,98.70
2019-05-03T01:09:23.077Z,98.90
2019-05-03T01:11:52.448Z,98.80
2019-05-03T01:14:20.010Z,98.90
2019-05-03T01:16:47.443Z,99.00
2019-05-03T01:19:15.430Z,98.70
2019-05-03T01:21:42.986Z,98.70
2019-05-03T01:24:12.311Z,98.80
2019-05-03T01:26:41.933Z,99.00
2019-05-03T01:29:09.561Z,98.10
2019-05-03T01:31:37.278Z,98.00
2019-05-03T01:34:04.862Z,96.70
2019-05-03T01:36:32.766Z,96.20
2019-05-03T01:39:02.118Z,96.00
2019-05-03T01:41:32.210Z,96.10
2019-05-03T01:44:01.827Z,95.90
2019-05-03T01:46:29.309Z,96.00
2019-05-03T01:49:14.287Z,96.10
2019-05-03T01:52:07.502Z,96.10
2019-05-03T01:54:35.144Z,95.80
2019-05-03T01:57:02.741Z,95.80
2019-05-03T01:59:32.033Z,95.90
2019-05-03T02:02:25.402Z,96.00
2019-05-03T02:05:12.592Z,96.00
2019-05-03T02:07:42.175Z,96.10
2019-05-03T02:10:11.928Z,95.80
2019-05-03T02:12:41.653Z,96.00
2019-05-03T02:15:11.683Z,95.70
2019-05-03T02:17:39.192Z,95.80
2019-05-03T02:20:06.941Z,95.00
2019-05-03T02:22:34.425Z,95.40
2019-05-03T02:25:02.368Z,95.20
2019-05-03T02:27:30.264Z,95.00
2019-05-03T02:29:58.244Z,94.90
2019-05-03T02:32:26.114Z,95.10
2019-05-03T02:34:53.939Z,95.20
2019-05-03T02:37:22.528Z,95.10
2019-05-03T02:39:54.875Z,95.10
2019-05-03T02:42:22.900Z,95.10
2019-05-03T02:44:51.000Z,95.30
2019-05-03T02:47:27.788Z,95.20
2019-05-03T02:50:02.402Z,95.30
2019-05-03T02:52:36.403Z,95.40
2019-05-03T02:55:06.060Z,95.40
2019-05-03T02:57:35.205Z,95.50
2019-05-03T03:00:05.040Z,95.40
2019-05-03T03:02:32.873Z,95.50
2019-05-03T03:05:01.537Z,95.40
2019-05-03T03:07:30.639Z,95.70
2019-05-03T03:09:59.164Z,95.80
2019-05-03T03:12:29.241Z,95.80
2019-05-03T03:15:00.892Z,95.90
2019-05-03T03:17:36.429Z,96.20
2019-05-03T03:20:06.022Z,96.30
2019-05-03T03:22:38.917Z,96.40
2019-05-03T03:25:10.742Z,96.40
2019-05-03T03:27:41.434Z,96.40
2019-05-03T03:30:29.886Z,96.50
2019-05-03T03:32:58.700Z,96.40
2019-05-03T03:35:30.008Z,96.40
2019-05-03T03:37:58.666Z,96.50
2019-05-03T03:40:28.825Z,96.60
2019-05-03T03:42:57.206Z,96.70
2019-05-03T03:45:25.650Z,96.80
2019-05-03T03:47:56.361Z,96.90
2019-05-03T03:50:25.889Z,97.30
2019-05-03T03:52:55.953Z,97.70
2019-05-03T03:55:26.537Z,98.00
2019-05-03T03:57:55.729Z,98.20
2019-05-03T04:00:25.521Z,98.30
2019-05-03T04:02:55.226Z,98.40
2019-05-03T04:05:25.400Z,98.40
2019-05-03T04:07:55.895Z,98.30
2019-05-03T04:10:25.890Z,98.20
2019-05-03T04:12:55.691Z,98.30
2019-05-03T04:15:45.113Z,98.30
2019-05-03T04:18:29.612Z,98.20
2019-05-03T04:20:58.231Z,98.20
2019-05-03T04:23:27.072Z,98.10
2019-05-03T04:25:56.736Z,98.10
2019-05-03T04:28:25.558Z,98.40
2019-05-03T04:30:55.421Z,98.30
2019-05-03T04:33:22.773Z,98.20
2019-05-03T04:35:52.408Z,98.20
2019-05-03T04:38:20.927Z,98.20
2019-05-03T04:40:48.823Z,98.10
2019-05-03T04:43:16.781Z,98.00
2019-05-03T04:45:47.814Z,98.10
2019-05-03T04:48:18.838Z,98.30
2019-05-03T04:50:46.886Z,98.40
2019-05-03T04:53:16.248Z,98.60
2019-05-03T04:55:46.608Z,98.70
2019-05-03T04:58:16.225Z,98.60
2019-05-03T05:00:46.585Z,98.70
2019-05-03T05:03:15.105Z,98.50
2019-05-03T08:10:09.918Z,91.60
2019-05-03T08:12:38.367Z,92.00
2019-05-03T08:15:06.242Z,91.00
2019-05-03T08:17:34.684Z,91.30
2019-05-03T08:20:02.830Z,91.50
2019-05-03T08:22:30.630Z,91.50
2019-05-03T08:24:58.331Z,91.40
2019-05-03T08:27:25.757Z,91.80
2019-05-03T08:29:53.216Z,92.60
2019-05-03T08:32:40.307Z,92.70
2019-05-03T08:35:18.109Z,91.90
2019-05-03T08:37:56.557Z,91.50
2019-05-03T08:40:26.387Z,91.70
2019-05-03T08:42:54.976Z,91.20
2019-05-03T08:45:22.693Z,91.10
2019-05-03T08:47:50.822Z,91.50
2019-05-03T08:50:21.468Z,90.80
2019-05-03T08:52:48.454Z,89.10
2019-05-03T08:55:16.082Z,88.90
2019-05-03T08:57:44.814Z,86.40
2019-05-03T09:00:15.234Z,82.70
2019-05-03T09:02:44.590Z,83.60
2019-05-03T09:05:12.352Z,83.10
2019-05-03T09:07:40.152Z,84.90
2019-05-03T09:10:16.785Z,85.20
2019-05-03T09:13:05.562Z,85.50
2019-05-03T09:15:31.568Z,84.70
2019-05-03T09:17:59.498Z,83.00
2019-05-03T09:20:27.659Z,79.50
2019-05-03T09:22:55.212Z,83.80
2019-05-03T09:25:24.772Z,83.90
2019-05-03T09:27:52.475Z,79.80
2019-05-03T09:30:21.178Z,78.70
2019-05-03T09:32:48.806Z,79.50
2019-05-03T09:35:29.010Z,77.40
2019-05-03T09:37:45.967Z,78.40
2019-05-03T09:40:15.058Z,77.40
2019-05-03T09:42:44.515Z,76.90
2019-05-03T09:45:12.714Z,77.90
2019-05-03T09:47:40.219Z,80.70
2019-05-03T09:50:07.888Z,80.80
2019-05-03T09:52:35.627Z,79.00
2019-05-03T09:55:05.666Z,77.70
2019-05-03T09:57:34.741Z,75.00
2019-05-03T10:00:04.943Z,76.90
2019-05-03T10:02:34.994Z,74.80
2019-05-03T10:05:02.821Z,76.30
2019-05-03T10:07:30.605Z,76.90
2019-05-03T10:09:58.491Z,76.20
2019-05-03T10:12:27.131Z,74.40
2019-05-03T10:14:55.431Z,74.60
2019-05-03T10:17:51.938Z,70.30
2019-05-03T10:20:21.210Z,71.90
2019-05-03T10:22:49.091Z,70.00
2019-05-03T10:25:16.710Z,71.60
2019-05-03T10:27:45.885Z,72.00
2019-05-03T10:30:24.867Z,71.50
2019-05-03T10:32:58.972Z,72.40
2019-05-03T10:35:26.708Z,70.80
2019-05-03T10:37:54.866Z,71.50
2019-05-03T10:40:25.844Z,70.30
2019-05-03T10:42:55.288Z,70.20
2019-05-03T10:45:25.788Z,71.00
2019-05-03T10:47:52.578Z,72.60
2019-05-03T10:50:20.024Z,72.80
2019-05-03T10:53:00.161Z,74.70
2019-05-03T10:55:28.103Z,73.00
2019-05-03T10:58:16.153Z,73.80
2019-05-03T11:00:52.726Z,71.90
2019-05-03T11:03:16.740Z,74.00
2019-05-03T11:05:45.408Z,71.70
2019-05-03T11:08:14.595Z,70.60
2019-05-03T11:10:42.126Z,70.60
2019-05-03T11:13:10.391Z,72.80
2019-05-03T11:15:38.222Z,71.70
2019-05-03T11:18:06.019Z,72.70
2019-05-03T11:20:34.694Z,72.00
2019-05-03T11:23:02.921Z,73.30
2019-05-03T11:25:31.148Z,70.80
2019-05-03T11:28:00.345Z,69.60
2019-05-03T11:30:28.112Z,68.50
2019-05-03T11:33:03.470Z,68.70
2019-05-03T11:35:50.811Z,66.40
2019-05-03T11:38:27.232Z,68.40
2019-05-03T11:40:55.973Z,69.10
2019-05-03T11:43:24.775Z,67.30
2019-05-03T11:45:52.722Z,70.80
2019-05-03T11:48:20.547Z,69.60
2019-05-03T11:50:48.585Z,70.20
2019-05-03T11:53:16.107Z,66.20
2019-05-03T11:55:46.481Z,68.10
2019-05-03T11:58:18.031Z,66.70
2019-05-03T12:00:45.896Z,64.10
2019-05-03T12:03:21.491Z,64.60
2019-05-03T12:05:52.073Z,65.50
2019-05-03T12:08:19.600Z,66.50
2019-05-03T12:10:55.317Z,65.80
2019-05-03T12:13:34.501Z,68.60
2019-05-03T12:16:02.573Z,70.30
2019-05-03T12:18:45.242Z,70.00
2019-05-03T12:21:02.123Z,70.90
2019-05-03T12:23:31.868Z,71.60
2019-05-03T12:26:00.814Z,72.20
2019-05-03T12:28:29.587Z,72.30
2019-05-03T12:30:57.551Z,69.90
2019-05-03T12:33:26.087Z,66.50
2019-05-03T12:35:55.255Z,69.00
2019-05-03T12:38:25.344Z,66.80
2019-05-03T12:40:54.265Z,67.60
2019-05-03T12:43:21.946Z,69.00
2019-05-03T12:45:49.653Z,66.90
2019-05-03T12:48:17.137Z,65.90
2019-05-03T12:50:46.340Z,67.20
2019-05-03T12:53:15.170Z,64.50
2019-05-03T12:55:43.679Z,65.00
2019-05-03T12:58:11.444Z,68.00
2019-05-03T13:01:15.744Z,64.90
2019-05-03T13:04:05.830Z,64.00
2019-05-03T13:06:36.127Z,63.90
2019-05-03T13:09:05.724Z,63.90
2019-05-03T13:11:36.580Z,62.40
2019-05-03T13:14:04.857Z,63.70
2019-05-03T13:16:32.935Z,64.00
2019-05-03T13:19:00.699Z,67.20
2019-05-03T13:21:28.282Z,67.50
2019-05-03T13:23:56.430Z,72.90
2019-05-03T13:26:25.405Z,74.80
2019-05-03T13:28:55.173Z,75.00
2019-05-03T13:31:22.704Z,76.80
2019-05-03T13:33:50.798Z,78.40
2019-05-03T13:36:19.148Z,76.50
2019-05-03T13:38:47.281Z,72.50
2019-05-03T13:41:14.751Z,68.70
2019-05-03T13:43:42.480Z,68.10
2019-05-03T13:46:10.047Z,70.50
2019-05-03T13:48:45.368Z,68.60
2019-05-03T13:51:07.823Z,70.60
2019-05-03T13:53:35.287Z,70.30
2019-05-03T13:56:04.785Z,70.30
2019-05-03T13:58:33.256Z,68.30
2019-05-03T14:01:01.350Z,66.60
2019-05-03T14:03:29.382Z,67.10
2019-05-03T14:05:57.121Z,67.70
2019-05-03T14:08:25.356Z,68.40
2019-05-03T14:10:52.975Z,70.00
2019-05-03T14:13:21.095Z,71.30
2019-05-03T14:15:48.906Z,70.40
2019-05-03T14:18:16.965Z,67.70
2019-05-03T14:20:54.932Z,68.60
2019-05-03T14:23:21.985Z,69.10
2019-05-03T14:25:49.475Z,68.70
2019-05-03T14:28:17.508Z,68.10
2019-05-03T14:31:05.227Z,70.40
2019-05-03T14:33:35.289Z,70.40
2019-05-03T14:36:05.187Z,68.80
2019-05-03T14:38:32.998Z,68.90
2019-05-03T14:41:00.735Z,69.90
2019-05-03T14:43:28.825Z,70.50
2019-05-03T14:45:56.757Z,72.40
2019-05-03T14:48:25.273Z,72.60
2019-05-03T14:50:57.107Z,72.30
2019-05-03T14:53:22.599Z,72.50
2019-05-03T14:55:58.765Z,74.80
2019-05-03T14:58:45.667Z,74.80
2019-05-03T15:01:29.579Z,73.60
2019-05-03T15:03:57.186Z,73.40
2019-05-03T15:06:25.013Z,71.10
2019-05-03T15:08:54.610Z,71.80
2019-05-03T15:11:22.337Z,72.30
2019-05-03T15:13:50.281Z,71.70
2019-05-03T15:16:18.355Z,71.60
2019-05-03T15:18:46.663Z,71.90
2019-05-03T15:21:14.701Z,71.50
2019-05-03T15:23:42.848Z,72.70
2019-05-03T15:26:10.871Z,73.10
2019-05-03T15:28:39.036Z,76.10
2019-05-03T15:31:06.996Z,77.40
2019-05-03T15:33:35.342Z,78.00
2019-05-03T15:36:04.801Z,78.00
2019-05-03T15:38:34.433Z,77.60
2019-05-03T15:41:02.189Z,78.70
2019-05-03T15:43:56.073Z,79.40
2019-05-03T15:46:33.818Z,81.30
2019-05-03T15:49:02.104Z,80.00
2019-05-03T15:51:30.757Z,78.80
2019-05-03T15:53:58.327Z,77.70
2019-05-03T15:56:26.338Z,76.00
2019-05-03T15:58:55.194Z,77.00
2019-05-03T16:01:24.883Z,77.30
2019-05-03T16:03:55.415Z,77.20
2019-05-03T16:06:24.817Z,77.30
2019-05-03T16:08:52.553Z,75.80
2019-05-03T16:11:20.592Z,77.60
2019-05-03T16:13:51.106Z,78.90
2019-05-03T16:16:18.675Z,77.50
2019-05-03T16:18:46.288Z,76.50
2019-05-03T16:21:14.645Z,77.10
2019-05-03T16:23:42.483Z,73.10
2019-05-03T16:26:09.974Z,77.20
2019-05-03T16:28:52.210Z,76.10
2019-05-03T16:31:21.187Z,77.20
2019-05-03T16:33:49.336Z,77.30
2019-05-03T16:36:16.955Z,77.20
2019-05-03T16:38:45.058Z,77.60
2019-05-03T16:41:12.935Z,77.50
2019-05-03T16:43:40.797Z,75.10
2019-05-03T16:46:08.929Z,76.90
2019-05-03T16:48:36.573Z,76.30
2019-05-03T16:51:05.171Z,77.70
2019-05-03T16:53:34.888Z,78.00
2019-05-03T16:56:03.514Z,78.20
2019-05-03T16:58:31.538Z,78.00
2019-05-03T17:00:59.141Z,78.20
2019-05-03T17:03:38.447Z,78.90
2019-05-03T17:06:11.795Z,79.10
2019-05-03T17:08:51.530Z,77.20
2019-05-03T17:11:20.180Z,79.10
2019-05-03T17:13:48.083Z,79.90
2019-05-03T17:16:15.880Z,81.20
2019-05-03T17:18:44.650Z,80.50
2019-05-03T17:21:14.584Z,81.50
2019-05-03T17:23:44.642Z,81.60
2019-05-03T17:26:14.903Z,80.80
2019-05-03T17:28:42.351Z,81.00
2019-05-03T17:31:10.198Z,81.00
2019-05-03T17:33:38.081Z,82.20
2019-05-03T17:36:05.567Z,82.80
2019-05-03T17:38:35.002Z,82.50
2019-05-03T17:41:31.605Z,82.50
2019-05-03T17:44:04.915Z,82.60
2019-05-03T17:46:34.779Z,83.90
2019-05-03T17:49:02.663Z,83.90
2019-05-03T17:52:02.339Z,84.20
2019-05-03T17:54:58.222Z,84.60
2019-05-03T17:57:44.528Z,85.10
2019-05-03T18:00:49.618Z,84.80
2019-05-03T18:03:18.767Z,82.50
2019-05-03T18:05:55.249Z,82.50
2019-05-03T18:08:32.541Z,80.70
2019-05-03T18:11:06.991Z,81.00
2019-05-03T18:13:35.391Z,80.20
2019-05-03T18:16:04.732Z,80.40
2019-05-03T18:18:32.846Z,80.60
2019-05-03T18:21:00.424Z,80.70
2019-05-03T18:23:28.028Z,81.00
2019-05-03T18:25:55.600Z,81.60
2019-05-03T18:28:24.897Z,81.90
2019-05-03T18:30:54.584Z,82.20
2019-05-03T18:33:24.572Z,82.40
2019-05-03T18:35:52.022Z,82.50
2019-05-03T18:38:19.886Z,82.80
2019-05-03T18:40:47.727Z,82.40
2019-05-03T18:43:35.061Z,82.80
2019-05-03T18:46:25.109Z,83.20
2019-05-03T18:48:55.045Z,83.30
2019-05-03T18:51:22.981Z,84.40
2019-05-03T18:53:50.619Z,85.00
2019-05-03T18:56:18.154Z,85.90
2019-05-03T18:58:45.615Z,85.60
2019-05-03T19:01:14.803Z,88.10
2019-05-03T19:03:45.127Z,89.00
2019-05-03T19:06:13.248Z,89.10
2019-05-03T19:09:01.285Z,90.00
2019-05-03T19:11:35.276Z,90.30
2019-05-03T19:14:05.377Z,90.30
2019-05-03T19:17:07.932Z,90.50
2019-05-03T19:19:38.510Z,90.10
2019-05-03T19:22:06.082Z,90.00
2019-05-03T19:24:37.195Z,89.20
2019-05-03T19:27:06.495Z,90.40
2019-05-03T19:29:34.428Z,90.60
2019-05-03T19:32:02.282Z,91.00
2019-05-03T19:34:30.082Z,91.30
2019-05-03T19:36:58.265Z,91.70
2019-05-03T19:39:26.174Z,91.90
2019-05-03T19:41:55.290Z,91.80
2019-05-03T19:44:23.275Z,91.80
2019-05-03T19:46:50.895Z,92.10
2019-05-03T19:49:18.415Z,92.20
2019-05-03T19:51:46.327Z,92.30
2019-05-03T19:54:14.662Z,92.70
2019-05-03T19:56:44.566Z,93.00
2019-05-03T19:59:14.928Z,92.80
2019-05-03T20:01:49.761Z,92.30
2019-05-03T20:04:42.831Z,92.00
2019-05-03T20:07:42.376Z,91.20
2019-05-03T20:10:10.134Z,90.90
2019-05-03T20:12:37.952Z,91.10
2019-05-03T20:15:06.246Z,91.30
2019-05-03T20:17:34.537Z,91.90
2019-05-03T20:20:04.671Z,91.90
2019-05-03T20:22:34.964Z,92.20
2019-05-03T20:25:04.652Z,92.50
2019-05-03T20:27:35.024Z,92.60
2019-05-03T20:30:02.546Z,92.70
2019-05-03T20:32:30.010Z,92.60
2019-05-03T20:35:10.542Z,92.60
2019-05-03T20:37:27.788Z,92.80
2019-05-03T20:39:55.676Z,92.80
2019-05-03T20:42:42.074Z,93.20
2019-05-03T20:45:14.942Z,93.50
2019-05-03T20:47:56.773Z,93.50
2019-05-03T20:50:24.890Z,93.70
2019-05-03T20:52:54.825Z,93.70
2019-05-03T20:55:22.002Z,93.50
2019-05-03T20:57:49.554Z,93.60
2019-05-03T21:00:19.845Z,93.90
2019-05-03T21:02:53.474Z,93.90
2019-05-03T21:05:26.776Z,94.30
2019-05-03T21:07:46.407Z,94.60
2019-05-03T21:10:15.648Z,94.80
2019-05-03T21:12:43.420Z,94.70
2019-05-03T21:15:19.331Z,95.40
2019-05-03T21:18:08.945Z,95.00
2019-05-03T21:20:46.523Z,95.30
2019-05-03T21:23:15.651Z,95.30
2019-05-03T21:26:03.512Z,95.30
2019-05-03T21:28:18.415Z,95.40
2019-05-03T21:30:46.051Z,95.50
2019-05-03T21:33:15.654Z,95.60
2019-05-03T21:35:45.239Z,95.60
2019-05-03T21:38:12.881Z,95.90
2019-05-03T21:40:40.612Z,95.90
2019-05-03T21:43:08.091Z,95.90
2019-05-03T21:45:42.647Z,96.00
2019-05-03T21:48:15.184Z,96.10
2019-05-03T21:50:44.507Z,96.10
2019-05-03T21:53:12.354Z,96.10
2019-05-03T21:55:39.879Z,96.10
2019-05-03T21:58:07.734Z,96.10
2019-05-03T22:00:54.663Z,96.10
2019-05-03T22:03:22.432Z,96.30
2019-05-03T22:05:54.926Z,96.30
2019-05-03T22:08:19.621Z,96.60
2019-05-03T22:10:47.379Z,96.70
2019-05-03T22:13:16.310Z,96.70
2019-05-03T22:15:55.124Z,96.60
2019-05-03T22:18:26.817Z,96.70
2019-05-03T22:21:16.853Z,96.80
2019-05-03T22:24:04.492Z,96.90
2019-05-03T22:26:50.289Z,96.70
2019-05-03T22:29:18.426Z,97.00
2019-05-03T22:31:46.300Z,97.30
2019-05-03T22:34:15.053Z,97.30
2019-05-03T22:36:44.390Z,97.40
2019-05-03T22:39:12.428Z,97.40
2019-05-03T22:41:39.857Z,97.60
2019-05-03T22:44:07.305Z,97.60
2019-05-03T22:46:35.060Z,97.60
2019-05-03T22:49:04.761Z,97.70
2019-05-03T22:51:32.084Z,97.70
2019-05-03T22:53:59.643Z,97.90
2019-05-03T22:56:27.574Z,97.90
2019-05-03T22:58:55.009Z,97.90
2019-05-03T23:01:22.560Z,98.10
2019-05-03T23:03:50.109Z,98.10
2019-05-03T23:06:22.444Z,98.10
2019-05-03T23:08:47.586Z,98.20
2019-05-03T23:11:15.115Z,98.10
2019-05-03T23:13:44.623Z,98.00
2019-05-03T23:16:12.048Z,97.90
2019-05-03T23:18:39.485Z,97.90
2019-05-03T23:21:12.253Z,98.00
2019-05-03T23:23:50.015Z,98.00
2019-05-03T23:26:17.660Z,98.10
2019-05-03T23:28:45.330Z,98.30
2019-05-03T23:31:14.573Z,98.40
2019-05-03T23:33:42.187Z,98.50
2019-05-03T23:36:09.762Z,98.40
2019-05-03T23:38:37.227Z,98.40
2019-05-03T23:41:05.658Z,98.40
2019-05-03T23:43:33.332Z,98.50
2019-05-03T23:46:01.390Z,98.50
2019-05-03T23:48:29.339Z,98.50
2019-05-03T23:50:56.922Z,98.50
2019-05-03T23:53:24.378Z,98.40
2019-05-03T23:55:56.636Z,98.50
2019-05-03T23:58:24.677Z,98.70
